Northern & Central Napa County

33 Stations

15 Minute Data | America/Los_Angeles
as of 9/2/26 7:39 PM PDT
Station Date Time Temp (°F) RH (%) Dew Pt (°F) Wind Spd (mph) Wind Dir (°) Wind Gust (mph) Latest Rain (In) Daily Rain (In) Daily Max Temp (°F) Daily Min Temp (°F)
Tenma (North Calistoga) 9/2/26 1930 65.5   1.1 - - - - - 0.00 0.06 76.8   0.6 56.4   2.5
Calistoga-Solari 9/2/26 1930 66.0   1.9 61   1 52.0   1.1 8.1   2.1 WSW | 246 16.7   5.8 0.00 0.09 74.5   0.4 54.4   0.9
Calistoga-North 9/2/26 1930 67.1   2.3 60   6 52.9   0.4 - - - 0.00 0.03 77.9   0.0 57.9   1.9
Twomey Calistoga 9/2/26 1930 65.6   1.4 65   3 53.5   2.7 4.0   0.2 W | 277 9.6   0.5 0.00 0.02 77.5   0.0 49.8   2.2
Paloma 9/2/26 1930 66.5   2.0 60   5 52.1   0.1 2.4   3.4 ENE | 74 7.2   5.8 0.00 0.00 77.9   0.4 56.1   0.3
Calistoga (Ranch 78) 9/2/26 1930 66.0   1.9 62   1 52.5   2.2 2.4   2.6 W | 272 7.4   4.4 0.00 0.01 76.0   0.3 54.8   0.1
Diamond Mtn (Schramsberg) 9/2/26 1930 62.2   1.3 72   5 53.0   3.1 - - - 0.00 0.04 73.0   0.2 54.8   1.1
Diamond Mtn (McEachran) 9/2/26 1930 64.3   1.4 69   4 54.0   2.9 - - - - - 73.0   1.1 56.7   2.4
Deer Park 9/2/26 1930 65.2   3.1 63   3 52.3   1.6 4.0   0.0 NW | 304 9.9   0.7 0.00 0.00 75.9   0.4 56.0   0.2
St. Helena-North 9/2/26 1930 66.4   1.7 59   1 51.8   2.1 3.8   0.9 W | 281 11.2   2.8 0.00 0.01 77.3   1.6 55.8   1.5
St. Helena (NVV Office) 9/2/26 1930 66.8   1.6 - - 2.8   0.2 SW | 233 7.2   0.1 0.00 0.02 78.4   0.7 55.8   1.4
Tiara Fria (East St. Helena) 9/2/26 1930 66.9   1.8 62   2 53.5   2.7 4.3   0.6 W | 262 9.9   1.2 0.00 0.01 77.2   0.9 53.4   2.1
Prisoner Winery 9/2/26 1930 66.8   2.2 60   1 52.6   1.8 1.4   2.3 W | 269 4.3   9.5 0.00 0.04 76.9   0.1 53.4   0.2
Rutherford Hill Estate 9/2/26 1930 67.0   3.2 60   2 52.7   2.2 2.8   0.3 W | 270 8.1   1.1 0.00 0.04 77.9   0.8 55.9   1.2
Rutherford-North (Mee Ln) 9/2/26 1930 66.7   1.8 62   3 53.3   2.8 2.4   2.4 WSW | 249 5.3   9.2 0.00 0.04 76.9   0.4 51.7   1.4
Rutherford (STS) 9/2/26 1930 66.2   1.6 68   2 55.5   2.2 4.8   2.3 W | 272 12.6   6.1 0.00 0.02 78.8   0.2 52.2   3.6
Silver Oak OV 9/2/26 1930 67.1   2.0 58   2 52.0   0.9 2.8   5.1 SW | 228 6.6   12.1 0.00 0.00 76.4   0.2 52.5   5.7
Oakville-NE (Ranch 88) 9/2/26 1930 67.6   2.4 54   1 50.2   1.8 0.9   2.5 WNW | 301 5.2   8.3 0.00 0.00 77.1   0.3 51.6   5.9
Crossroads Ranch 9/2/26 1930 67.2   2.2 62   2 53.7   1.1 2.4   3.5 SW | 234 5.9   8.3 0.00 0.00 76.0   0.5 52.9   5.6
Oakville 9/2/26 1930 67.0   2.0 58   2 51.7   1.0 3.7   4.1 WSW | 254 10.4   5.0 0.00 0.00 76.6   0.3 52.6   6.2
To Kalon Remote (TKKE) 9/2/26 1930 67.1   2.0 - - - - - - - 78.6   0.3 53.7   4.3
To Kalon 9/2/26 1930 66.4   1.8 62   2 53.0   0.9 5.8   0.6 WSW | 245 13.2   2.5 0.00 0.00 76.8   0.3 53.6   5.9
To Kalon Remote (TKN5) 9/2/26 1930 67.0   1.6 - - - - - - - 77.4   0.4 53.7   6.5
Jump Rock 9/2/26 1930 60.9   1.9 71   0 51.5   1.6 2.7   0.7 WNW | 299 9.8   0.4 0.00 0.20 69.5   0.5 43.7   10.5
State Lane Ranch 9/2/26 1930 67.9   2.1 61   3 53.8   0.5 4.8   0.8 W | 272 10.6   1.1 0.00 0.00 77.3   0.9 50.4   8.4
Yountville (Ranch 67) 9/2/26 1930 66.4   1.6 55   2 50.0   0.4 2.9   3.7 W | 266 6.9   6.3 0.00 0.00 76.0   1.2 51.2   7.1
Borreo (Soda Canyon) 9/2/26 1930 65.0   1.9 56   2 48.8   0.6 3.6   1.5 NNW | 339 8.8   3.5 0.00 0.06 74.2   0.3 50.8   6.0
Wappo Hill Floor 9/2/26 1930 67.2   1.7 55   3 50.5   0.2 3.9   0.7 NW | 322 8.5   1.3 0.00 0.05 76.5   0.3 52.1   7.0
Wappo Hill 9/2/26 1930 66.9   1.9 56   3 50.6   0.5 6.0   4.3 W | 277 12.7   5.1 0.00 0.12 76.2   0.4 54.5   4.3
Stags Leap Dist (Chimney Rock) 9/2/26 1930 67.9   2.2 59   2 53.1   1.1 2.8   0.8 NW | 311 5.4   3.7 0.00 0.02 77.1   0.3 52.4   6.9
Stags Leap Dist (Silverado Vineyards) 9/2/26 1930 66.2   1.5 58   0 51.0   1.2 0.7   0.8 NE | 35 3.0   3.1 0.00 0.04 76.2   1.8 52.1   6.3
Yountville-SE (Ranch 85) 9/2/26 1930 68.1   2.6 54   5 50.6   0.1 4.9   0.6 N | 359 7.9   3.3 0.00 0.01 77.3   0.6 52.9   6.2
Yountville-South (Ranch 87) 9/2/26 1930 67.5   2.1 55   4 50.6   0.1 2.3   2.7 WNW | 296 5.5   4.8 0.00 0.05 76.4   0.1 52.4   6.6
Max     68.1 72 55.5 8.1 - 16.7 0.00 0.20 78.8 57.9
Avg     66.3 61 52.2 3.5 - 8.5 0.00 - - -
Min     60.9 54 48.8 0.7 - 3.0 0.00 0.00 69.5 43.7